createdAt,value
2018-10-03T00:00:52.793Z,7.50
2018-10-03T00:03:22.057Z,7.23
2018-10-03T00:05:51.257Z,7.97
2018-10-03T00:08:20.605Z,7.50
2018-10-03T00:10:49.902Z,8.60
2018-10-03T00:13:19.150Z,7.83
2018-10-03T00:15:49.273Z,8.63
2018-10-03T00:18:18.366Z,9.87
2018-10-03T00:20:47.845Z,9.83
2018-10-03T00:23:17.249Z,9.30
2018-10-03T00:25:46.664Z,9.67
2018-10-03T00:28:15.873Z,9.73
2018-10-03T00:30:45.126Z,8.53
2018-10-03T00:33:14.366Z,9.23
2018-10-03T00:35:43.453Z,9.40
2018-10-03T00:38:12.702Z,9.37
2018-10-03T00:40:42.065Z,9.83
2018-10-03T00:43:11.632Z,10.07
2018-10-03T00:45:41.018Z,11.07
2018-10-03T00:48:10.233Z,11.30
2018-10-03T00:50:39.350Z,10.70
2018-10-03T00:53:08.624Z,10.97
2018-10-03T00:55:37.785Z,11.43
2018-10-03T00:58:06.880Z,11.57
2018-10-03T01:00:36.333Z,12.43
2018-10-03T01:03:05.605Z,12.37
2018-10-03T01:05:34.861Z,12.73
2018-10-03T01:08:04.289Z,11.90
2018-10-03T01:10:33.561Z,11.87
2018-10-03T01:13:02.751Z,12.67
2018-10-03T01:15:31.953Z,12.53
2018-10-03T01:18:01.245Z,12.77
2018-10-03T01:20:30.545Z,13.37
2018-10-03T01:22:59.789Z,12.37
2018-10-03T01:25:29.153Z,13.03
2018-10-03T01:27:58.361Z,12.83
2018-10-03T01:30:28.689Z,13.20
2018-10-03T01:32:57.777Z,13.67
2018-10-03T01:35:26.959Z,12.97
2018-10-03T01:37:56.324Z,12.77
2018-10-03T01:40:25.474Z,13.63
2018-10-03T01:42:54.561Z,13.80
2018-10-03T01:45:23.873Z,11.93
2018-10-03T01:47:52.957Z,13.20
2018-10-03T01:50:22.054Z,13.43
2018-10-03T01:52:51.397Z,13.97
2018-10-03T01:55:20.741Z,13.10
2018-10-03T01:57:50.970Z,14.03
2018-10-03T02:00:22.062Z,12.73
2018-10-03T02:02:51.420Z,14.50
2018-10-03T02:05:20.825Z,14.30
2018-10-03T02:07:50.013Z,14.67
2018-10-03T02:10:19.226Z,13.33
2018-10-03T02:12:48.349Z,14.23
2018-10-03T02:15:17.521Z,14.53
2018-10-03T02:17:46.481Z,14.43
2018-10-03T02:20:15.909Z,15.37
2018-10-03T02:22:45.213Z,16.03
2018-10-03T02:25:14.486Z,15.60
2018-10-03T02:27:44.506Z,15.37
2018-10-03T02:30:13.720Z,16.17
2018-10-03T02:32:43.062Z,16.47
2018-10-03T02:35:12.512Z,15.60
2018-10-03T02:37:41.648Z,15.63
2018-10-03T02:40:10.696Z,15.97
2018-10-03T02:42:40.322Z,16.23
2018-10-03T02:45:09.514Z,17.40
2018-10-03T02:47:38.822Z,16.30
2018-10-03T02:50:08.814Z,16.77
2018-10-03T02:52:37.930Z,17.27
2018-10-03T02:55:07.044Z,17.50
2018-10-03T02:57:36.629Z,18.13
2018-10-03T03:00:05.969Z,18.47
2018-10-03T03:02:35.460Z,20.17
2018-10-03T03:05:04.742Z,21.77
2018-10-03T03:07:33.925Z,21.33
2018-10-03T03:10:03.321Z,20.90
2018-10-03T03:12:32.704Z,21.17
2018-10-03T03:15:02.047Z,21.63
2018-10-03T03:17:31.264Z,22.87
2018-10-03T03:20:00.714Z,22.93
2018-10-03T03:22:29.937Z,23.20
2018-10-03T03:24:59.045Z,24.00
2018-10-03T03:27:28.260Z,23.53
2018-10-03T03:29:57.521Z,24.17
2018-10-03T03:32:26.734Z,24.73
2018-10-03T03:34:56.247Z,24.70
2018-10-03T03:37:25.338Z,26.13
2018-10-03T03:39:54.636Z,24.13
2018-10-03T03:42:23.876Z,25.53
2018-10-03T03:44:53.119Z,25.47
2018-10-03T03:47:22.290Z,27.53
2018-10-03T03:49:51.759Z,26.77
2018-10-03T03:52:20.934Z,26.60
2018-10-03T03:54:50.133Z,28.07
2018-10-03T03:57:19.527Z,26.20
2018-10-03T03:59:48.723Z,24.47
2018-10-03T04:02:18.124Z,24.17
2018-10-03T04:04:47.737Z,24.60
2018-10-03T04:07:22.665Z,26.87
2018-10-03T04:09:52.325Z,25.20
2018-10-03T04:12:21.775Z,25.83
2018-10-03T04:14:50.925Z,24.87
2018-10-03T04:17:20.241Z,24.67
2018-10-03T04:19:49.668Z,25.33
2018-10-03T04:22:18.929Z,26.13
2018-10-03T04:24:48.242Z,26.60
2018-10-03T04:27:17.275Z,25.47
2018-10-03T04:29:46.503Z,27.73
2018-10-03T04:32:15.862Z,25.77
2018-10-03T04:34:44.977Z,27.73
2018-10-03T04:37:14.041Z,27.67
2018-10-03T04:39:43.481Z,26.47
2018-10-03T04:42:12.704Z,27.30
2018-10-03T04:44:42.194Z,26.13
2018-10-03T04:47:11.469Z,26.80
2018-10-03T04:49:40.502Z,26.40
2018-10-03T04:52:09.697Z,26.87
2018-10-03T04:54:39.100Z,26.90
2018-10-03T04:57:08.197Z,26.07
2018-10-03T04:59:37.301Z,26.90
2018-10-03T05:02:06.626Z,27.03
2018-10-03T05:04:35.979Z,26.87
2018-10-03T05:07:05.279Z,27.00
2018-10-03T05:09:34.725Z,26.60
2018-10-03T05:12:03.914Z,26.73
2018-10-03T05:14:32.966Z,26.23
2018-10-03T05:17:02.319Z,26.20
2018-10-03T05:19:31.592Z,28.00
2018-10-03T05:22:00.762Z,28.07
2018-10-03T05:24:30.400Z,35.70
2018-10-03T05:26:59.581Z,27.30
2018-10-03T05:29:28.672Z,26.13
2018-10-03T05:31:58.937Z,24.77
2018-10-03T05:34:28.099Z,26.27
2018-10-03T05:36:57.283Z,24.77
2018-10-03T05:39:26.704Z,25.97
2018-10-03T05:41:55.889Z,27.20
2018-10-03T05:44:25.099Z,27.33
2018-10-03T05:46:54.236Z,25.63
2018-10-03T05:49:23.848Z,25.93
2018-10-03T05:51:53.087Z,29.10
2018-10-03T05:54:22.450Z,26.63
2018-10-03T05:56:51.603Z,25.83
2018-10-03T05:59:20.689Z,24.60
2018-10-03T06:01:50.094Z,26.57
2018-10-03T06:04:19.587Z,25.27
2018-10-03T06:06:48.946Z,25.03
2018-10-03T06:09:18.457Z,23.97
2018-10-03T06:11:47.733Z,25.40
2018-10-03T06:14:16.860Z,24.40
2018-10-03T06:16:46.306Z,24.83
2018-10-03T06:19:15.475Z,24.13
2018-10-03T06:21:44.635Z,23.70
2018-10-03T06:24:13.927Z,23.33
2018-10-03T06:26:43.137Z,24.20
2018-10-03T06:29:12.622Z,23.53
2018-10-03T06:31:42.153Z,24.20
2018-10-03T06:34:11.528Z,24.10
2018-10-03T06:36:40.673Z,25.07
2018-10-03T06:39:10.761Z,23.90
2018-10-03T06:41:41.161Z,23.20
2018-10-03T06:44:10.896Z,29.83
2018-10-03T06:46:40.008Z,24.57
2018-10-03T06:49:09.209Z,21.80
2018-10-03T06:51:38.361Z,21.37
2018-10-03T06:54:07.591Z,21.70
2018-10-03T06:56:36.780Z,21.40
2018-10-03T06:59:07.150Z,22.80
2018-10-03T07:01:36.324Z,22.70
2018-10-03T07:04:05.401Z,20.50
2018-10-03T07:06:34.941Z,21.67
2018-10-03T07:09:05.301Z,21.70
2018-10-03T07:11:35.613Z,23.67
2018-10-03T07:14:04.977Z,23.23
2018-10-03T07:16:34.545Z,21.77
2018-10-03T07:19:03.773Z,21.03
2018-10-03T07:21:32.873Z,19.70
2018-10-03T07:24:02.213Z,20.67
2018-10-03T07:26:31.463Z,20.63
2018-10-03T07:29:00.814Z,21.07
2018-10-03T07:31:30.541Z,36.87
2018-10-03T07:33:59.783Z,20.20
2018-10-03T07:36:28.892Z,19.63
2018-10-03T07:38:58.240Z,18.83
2018-10-03T07:41:27.569Z,18.43
2018-10-03T07:43:56.872Z,19.83
2018-10-03T07:46:26.578Z,17.63
2018-10-03T07:48:55.689Z,16.90
2018-10-03T07:51:24.889Z,17.43
2018-10-03T07:53:54.126Z,17.90
2018-10-03T07:56:23.493Z,15.53
2018-10-03T07:58:53.029Z,15.57
2018-10-03T08:01:22.470Z,15.30
2018-10-03T08:03:51.610Z,14.43
2018-10-03T08:06:21.327Z,15.77
2018-10-03T08:08:50.505Z,14.77
2018-10-03T08:11:19.795Z,15.10
2018-10-03T08:13:48.902Z,15.33
2018-10-03T08:16:18.149Z,15.43
2018-10-03T08:18:47.294Z,15.37
2018-10-03T08:21:16.382Z,14.13
2018-10-03T08:23:45.843Z,14.50
2018-10-03T08:26:15.164Z,15.40
2018-10-03T08:28:46.498Z,16.43
2018-10-03T08:31:15.717Z,16.23
2018-10-03T08:33:44.870Z,15.80
2018-10-03T08:36:14.395Z,14.93
2018-10-03T08:38:43.691Z,15.30
2018-10-03T08:41:12.934Z,14.57
2018-10-03T08:43:42.293Z,14.40
2018-10-03T08:46:11.439Z,15.07
2018-10-03T08:48:40.637Z,15.13
2018-10-03T08:51:09.769Z,15.63
2018-10-03T08:53:38.801Z,15.80
2018-10-03T08:56:08.014Z,15.40
2018-10-03T08:58:37.459Z,14.90
2018-10-03T09:01:07.022Z,15.33
2018-10-03T09:03:36.258Z,15.37
2018-10-03T09:06:05.661Z,14.33
2018-10-03T09:08:35.113Z,14.13
2018-10-03T09:11:04.316Z,15.23
2018-10-03T09:13:33.753Z,14.93
2018-10-03T09:16:02.933Z,14.23
2018-10-03T09:18:32.115Z,15.60
2018-10-03T09:21:01.393Z,14.03
2018-10-03T09:23:30.626Z,14.03
2018-10-03T09:25:59.842Z,14.10
2018-10-03T09:28:29.045Z,15.87
2018-10-03T09:30:58.520Z,13.03
2018-10-03T09:33:27.801Z,13.23
2018-10-03T09:35:57.409Z,13.23
2018-10-03T09:38:26.408Z,12.57
2018-10-03T09:40:55.517Z,12.97
2018-10-03T09:43:24.987Z,12.37
2018-10-03T09:45:54.098Z,11.97
2018-10-03T09:48:23.205Z,11.53
2018-10-03T09:50:52.352Z,12.33
2018-10-03T09:53:21.729Z,12.80
2018-10-03T09:55:50.993Z,11.60
2018-10-03T09:58:20.380Z,12.47
2018-10-03T10:00:54.679Z,11.00
2018-10-03T10:03:24.189Z,11.00
2018-10-03T10:05:53.422Z,12.33
2018-10-03T10:08:22.733Z,12.47
2018-10-03T10:10:52.419Z,12.10
2018-10-03T10:13:21.535Z,10.60
2018-10-03T10:15:50.638Z,10.87
2018-10-03T10:18:19.861Z,10.70
2018-10-03T10:20:49.293Z,10.03
2018-10-03T10:23:18.747Z,10.27
2018-10-03T10:25:47.981Z,10.00
2018-10-03T10:28:17.157Z,11.07
2018-10-03T10:30:46.370Z,10.00
2018-10-03T10:33:15.573Z,9.87
2018-10-03T10:35:44.814Z,10.40
2018-10-03T10:38:14.010Z,10.33
2018-10-03T10:40:43.656Z,10.47
2018-10-03T10:43:12.865Z,10.90
2018-10-03T10:45:42.141Z,9.97
2018-10-03T10:48:12.146Z,10.57
2018-10-03T10:50:41.456Z,9.43
2018-10-03T10:53:10.666Z,9.53
2018-10-03T10:55:40.207Z,9.47
2018-10-03T10:58:09.785Z,8.60
2018-10-03T11:00:39.034Z,9.87
2018-10-03T11:03:08.447Z,10.57
2018-10-03T11:05:37.669Z,9.70
2018-10-03T11:08:06.762Z,9.63
2018-10-03T11:10:36.022Z,9.73
2018-10-03T11:13:05.449Z,9.73
2018-10-03T11:15:34.807Z,9.60
2018-10-03T11:18:04.093Z,10.37
2018-10-03T11:20:33.286Z,9.93
2018-10-03T11:23:02.615Z,9.90
2018-10-03T11:25:31.985Z,9.23
2018-10-03T11:28:01.239Z,9.53
2018-10-03T11:30:30.566Z,10.47
2018-10-03T11:33:00.109Z,9.43
2018-10-03T11:35:29.363Z,11.17
2018-10-03T11:37:58.457Z,10.57
2018-10-03T11:40:27.731Z,9.40
2018-10-03T11:42:56.840Z,10.67
2018-10-03T11:45:25.958Z,9.77
2018-10-03T11:47:55.089Z,8.80
2018-10-03T11:50:24.339Z,9.17
2018-10-03T11:52:53.631Z,9.10
2018-10-03T11:55:23.149Z,9.00
2018-10-03T11:57:52.242Z,9.43
2018-10-03T12:00:21.437Z,10.27
2018-10-03T12:02:50.748Z,8.47
2018-10-03T12:05:20.121Z,8.60
2018-10-03T12:07:49.450Z,8.10
2018-10-03T12:10:18.838Z,9.03
2018-10-03T12:12:48.021Z,8.70
2018-10-03T12:15:17.243Z,9.13
2018-10-03T12:17:46.477Z,9.70
2018-10-03T12:20:15.733Z,10.70
2018-10-03T12:22:44.814Z,10.80
2018-10-03T12:25:14.004Z,11.00
2018-10-03T12:27:43.402Z,9.57
2018-10-03T12:30:12.640Z,9.70
2018-10-03T12:32:42.114Z,10.47
2018-10-03T12:35:11.143Z,9.73
2018-10-03T12:37:40.445Z,9.63
2018-10-03T12:40:09.783Z,9.50
2018-10-03T12:42:39.029Z,9.27
2018-10-03T12:45:08.327Z,12.17
2018-10-03T12:47:38.157Z,12.70
2018-10-03T12:50:07.328Z,10.43
2018-10-03T12:52:36.426Z,16.70
2018-10-03T12:55:05.877Z,12.60
2018-10-03T12:57:35.113Z,11.37
2018-10-03T13:00:04.517Z,13.80
2018-10-03T13:02:33.885Z,11.00
2018-10-03T13:05:03.133Z,19.40
2018-10-03T13:07:32.237Z,18.67
2018-10-03T13:10:01.649Z,9.80
2018-10-03T13:12:31.246Z,12.00
2018-10-03T13:15:00.529Z,11.30
2018-10-03T13:17:29.920Z,9.83
2018-10-03T13:19:59.035Z,11.80
2018-10-03T13:22:28.262Z,10.17
2018-10-03T13:24:57.509Z,11.13
2018-10-03T13:27:26.631Z,9.17
2018-10-03T13:29:55.722Z,9.57
2018-10-03T13:32:25.033Z,9.53
2018-10-03T13:34:54.240Z,10.97
2018-10-03T13:37:23.322Z,14.07
2018-10-03T13:39:52.697Z,12.83
2018-10-03T13:42:21.794Z,11.70
2018-10-03T13:44:50.897Z,13.03
2018-10-03T13:47:20.429Z,13.20
2018-10-03T13:49:49.693Z,11.80
2018-10-03T13:52:18.930Z,13.47
2018-10-03T13:54:48.141Z,11.97
2018-10-03T13:57:17.371Z,13.17
2018-10-03T13:59:46.509Z,15.27
2018-10-03T14:02:15.865Z,13.23
2018-10-03T14:04:45.113Z,13.90
2018-10-03T14:07:14.189Z,13.40
2018-10-03T14:09:43.643Z,12.47
2018-10-03T14:12:12.811Z,12.90
2018-10-03T14:14:41.998Z,13.33
2018-10-03T14:17:11.175Z,11.60
2018-10-03T14:19:40.394Z,13.73
2018-10-03T14:22:09.577Z,13.37
2018-10-03T14:24:38.941Z,14.67
2018-10-03T14:27:08.303Z,13.57
2018-10-03T14:29:37.945Z,14.17
2018-10-03T14:32:07.309Z,14.63
2018-10-03T14:34:36.402Z,15.27
2018-10-03T14:37:05.493Z,14.27
2018-10-03T14:39:34.705Z,13.63
2018-10-03T14:42:03.985Z,15.20
2018-10-03T14:44:33.200Z,13.50
2018-10-03T14:47:02.783Z,14.10
2018-10-03T14:49:32.079Z,14.97
2018-10-03T14:52:01.248Z,27.93
2018-10-03T14:54:30.661Z,15.90
2018-10-03T14:56:59.903Z,15.43
2018-10-03T14:59:29.109Z,15.63
2018-10-03T15:01:58.453Z,16.27
2018-10-03T15:04:27.720Z,16.27
2018-10-03T15:06:57.017Z,14.30
2018-10-03T15:09:26.245Z,15.93
2018-10-03T15:11:55.385Z,19.03
2018-10-03T15:14:24.525Z,15.83
2018-10-03T15:16:53.774Z,15.47
2018-10-03T15:19:23.180Z,14.77
2018-10-03T15:21:52.361Z,16.23
2018-10-03T15:24:21.931Z,17.37
2018-10-03T15:26:51.281Z,17.10
2018-10-03T15:29:20.581Z,16.40
2018-10-03T15:31:49.947Z,15.73
2018-10-03T15:34:19.089Z,16.43
2018-10-03T15:36:48.266Z,15.10
2018-10-03T15:39:17.525Z,14.60
2018-10-03T15:41:46.781Z,14.17
2018-10-03T15:44:16.066Z,15.63
2018-10-03T15:46:45.358Z,14.90
2018-10-03T15:49:14.661Z,14.50
2018-10-03T15:51:43.888Z,14.40
2018-10-03T15:54:13.148Z,14.07
2018-10-03T15:56:42.457Z,16.20
2018-10-03T15:59:11.585Z,20.77
2018-10-03T16:01:41.001Z,19.57
2018-10-03T16:04:10.809Z,18.70
2018-10-03T16:06:40.141Z,18.57
2018-10-03T16:09:10.421Z,17.10
2018-10-03T16:11:40.092Z,17.43
2018-10-03T16:14:09.977Z,18.07
2018-10-03T16:16:39.213Z,16.43
2018-10-03T16:19:08.434Z,18.23
2018-10-03T16:21:37.689Z,19.30
2018-10-03T16:24:06.830Z,18.20
2018-10-03T16:26:35.917Z,18.87
2018-10-03T16:29:05.437Z,17.87
2018-10-03T16:31:34.609Z,18.67
2018-10-03T16:34:03.817Z,17.73
2018-10-03T16:36:33.356Z,17.30
2018-10-03T16:39:02.875Z,17.97
2018-10-03T16:41:32.223Z,15.57
2018-10-03T16:44:01.733Z,15.63
2018-10-03T16:46:30.942Z,17.33
2018-10-03T16:49:00.033Z,15.30
2018-10-03T16:51:29.319Z,16.53
2018-10-03T16:53:58.553Z,16.17
2018-10-03T16:56:27.722Z,15.90
2018-10-03T16:58:56.893Z,16.57
2018-10-03T17:01:26.211Z,15.90
2018-10-03T17:03:55.526Z,18.80
2018-10-03T17:06:25.110Z,17.70
2018-10-03T17:08:54.334Z,17.83
2018-10-03T17:11:23.673Z,17.93
2018-10-03T17:14:34.109Z,18.00
2018-10-03T17:17:03.285Z,18.97
2018-10-03T17:19:32.481Z,17.77
2018-10-03T17:22:02.350Z,20.73
2018-10-03T17:24:32.801Z,21.80
2018-10-03T17:27:02.233Z,24.77
2018-10-03T17:29:31.404Z,25.57
2018-10-03T17:32:00.529Z,24.40
2018-10-03T17:34:30.097Z,24.03
2018-10-03T17:36:59.417Z,25.60
2018-10-03T17:39:28.943Z,26.10
2018-10-03T17:41:58.467Z,28.43
2018-10-03T17:44:27.734Z,28.63
2018-10-03T17:46:58.190Z,22.93
2018-10-03T17:49:27.386Z,23.37
2018-10-03T17:51:56.447Z,22.83
2018-10-03T17:54:26.086Z,22.80
2018-10-03T17:56:55.346Z,22.60
2018-10-03T17:59:24.658Z,19.50
2018-10-03T18:01:55.816Z,20.47
2018-10-03T18:04:24.927Z,18.40
2018-10-03T18:06:54.265Z,19.50
2018-10-03T18:09:23.656Z,18.27
2018-10-03T18:11:52.790Z,20.37
2018-10-03T18:14:21.990Z,18.77
2018-10-03T18:16:51.446Z,20.37
2018-10-03T18:19:20.706Z,17.07
2018-10-03T18:21:49.911Z,17.90
2018-10-03T18:24:19.606Z,16.53
2018-10-03T18:26:48.798Z,15.57
2018-10-03T18:29:18.117Z,16.63
2018-10-03T18:31:48.211Z,15.70
2018-10-03T18:34:17.315Z,14.33
2018-10-03T18:36:46.609Z,14.07
2018-10-03T18:39:16.225Z,14.00
2018-10-03T18:41:45.525Z,13.40
2018-10-03T18:44:14.729Z,14.57
2018-10-03T18:46:43.953Z,13.67
2018-10-03T18:49:13.417Z,13.80
2018-10-03T18:51:42.791Z,13.30
2018-10-03T18:54:12.330Z,13.10
2018-10-03T18:56:41.325Z,13.23
2018-10-03T18:59:10.607Z,13.90
2018-10-03T19:01:39.812Z,13.53
2018-10-03T19:04:09.640Z,14.30
2018-10-03T19:06:38.845Z,15.27
2018-10-03T19:09:09.934Z,13.90
2018-10-03T19:11:39.075Z,14.47
2018-10-03T19:14:08.678Z,14.03
2018-10-03T19:16:37.990Z,14.73
2018-10-03T19:19:07.369Z,14.00
2018-10-03T19:21:36.567Z,15.77
2018-10-03T19:24:05.836Z,29.70
2018-10-03T19:26:35.191Z,31.97
2018-10-03T19:29:04.689Z,34.07
2018-10-03T19:31:34.212Z,39.53
2018-10-03T19:34:03.471Z,25.27
2018-10-03T19:36:32.597Z,22.40
2018-10-03T19:39:01.870Z,17.70
2018-10-03T19:41:31.101Z,18.63
2018-10-03T19:44:00.436Z,20.03
2018-10-03T19:46:29.712Z,20.53
2018-10-03T19:48:59.078Z,25.87
2018-10-03T19:51:28.380Z,51.77
2018-10-03T19:53:58.030Z,69.17
2018-10-03T19:56:27.223Z,76.73
2018-10-03T19:58:56.405Z,69.30
2018-10-03T20:01:25.566Z,53.57
2018-10-03T20:03:54.939Z,42.10
2018-10-03T20:06:24.389Z,37.07
2018-10-03T20:08:53.725Z,36.50
2018-10-03T20:11:22.989Z,28.47
2018-10-03T20:13:52.214Z,23.87
2018-10-03T20:16:22.214Z,22.50
2018-10-03T20:18:51.308Z,22.80
2018-10-03T20:21:20.577Z,19.27
2018-10-03T20:23:49.845Z,17.30
2018-10-03T20:26:19.027Z,17.87
2018-10-03T20:28:48.286Z,21.90
2018-10-03T20:31:17.717Z,18.33
2018-10-03T20:33:46.876Z,21.10
2018-10-03T20:36:16.098Z,21.37
2018-10-03T20:38:45.534Z,23.20
2018-10-03T20:41:14.708Z,22.70
2018-10-03T20:43:43.913Z,24.73
2018-10-03T20:46:13.269Z,23.90
2018-10-03T20:48:42.579Z,53.50
2018-10-03T20:51:11.892Z,51.53
2018-10-03T20:53:41.209Z,37.93
2018-10-03T20:56:10.397Z,37.73
2018-10-03T20:58:39.485Z,17.33
2018-10-03T21:01:08.858Z,7.10
2018-10-03T21:03:38.173Z,5.67
2018-10-03T21:06:07.659Z,5.40
2018-10-03T21:08:37.074Z,5.30
2018-10-03T21:11:06.339Z,5.60
2018-10-03T21:13:35.552Z,5.47
2018-10-03T21:16:04.910Z,5.37
2018-10-03T21:18:34.728Z,5.40
2018-10-03T21:21:04.310Z,6.63
2018-10-03T21:23:33.939Z,4.67
2018-10-03T21:26:03.263Z,4.70
2018-10-03T21:28:32.947Z,4.80
2018-10-03T21:31:01.973Z,4.40
2018-10-03T21:33:31.187Z,4.40
2018-10-03T21:36:00.504Z,4.23
2018-10-03T21:38:29.871Z,4.60
2018-10-03T21:40:59.271Z,4.67
2018-10-03T21:43:28.650Z,4.70
2018-10-03T21:45:57.988Z,4.20
2018-10-03T21:48:27.454Z,4.60
2018-10-03T21:50:57.034Z,4.50
2018-10-03T21:53:26.128Z,4.90
2018-10-03T21:55:55.425Z,4.50
2018-10-03T21:58:24.657Z,4.40
2018-10-03T22:00:54.741Z,3.93
2018-10-03T22:03:25.055Z,4.47
2018-10-03T22:05:54.631Z,4.67
2018-10-03T22:08:24.151Z,4.33
2018-10-03T22:10:53.775Z,4.23
2018-10-03T22:13:23.166Z,4.93
2018-10-03T22:15:52.692Z,4.97
2018-10-03T22:18:22.246Z,4.20
2018-10-03T22:20:52.329Z,4.63
2018-10-03T22:23:22.182Z,4.50
2018-10-03T22:25:51.795Z,4.70
2018-10-03T22:28:21.414Z,4.67
2018-10-03T22:30:51.077Z,4.27
2018-10-03T22:33:20.442Z,4.63
2018-10-03T22:35:49.847Z,4.60
2018-10-03T22:38:19.110Z,4.13
2018-10-03T22:40:48.378Z,4.40
2018-10-03T22:43:17.816Z,4.50
2018-10-03T22:45:47.203Z,4.40
2018-10-03T22:48:16.411Z,4.80
2018-10-03T22:50:45.875Z,4.77
2018-10-03T22:53:14.964Z,4.43
2018-10-03T22:55:44.079Z,4.50
2018-10-03T22:58:13.542Z,3.93
2018-10-03T23:00:42.881Z,5.03
2018-10-03T23:03:12.197Z,4.50
2018-10-03T23:05:41.655Z,4.10
2018-10-03T23:08:10.776Z,4.27
2018-10-03T23:10:40.132Z,4.30
2018-10-03T23:13:09.448Z,4.30
2018-10-03T23:15:38.663Z,4.70
2018-10-03T23:18:07.870Z,4.47
2018-10-03T23:20:37.304Z,4.53
2018-10-03T23:23:06.491Z,4.27
2018-10-03T23:25:35.780Z,4.37
2018-10-03T23:28:05.062Z,4.70
2018-10-03T23:30:34.274Z,4.70
2018-10-03T23:33:03.575Z,4.33
2018-10-03T23:35:33.132Z,4.50
2018-10-03T23:38:02.359Z,4.63
2018-10-03T23:40:31.656Z,4.27
2018-10-03T23:43:01.001Z,3.83
2018-10-03T23:45:30.239Z,4.50
2018-10-03T23:47:59.635Z,4.67
2018-10-03T23:50:29.072Z,4.17
2018-10-03T23:52:58.339Z,4.67
2018-10-03T23:55:27.534Z,4.87
2018-10-03T23:57:56.999Z,4.47
